Time;durP1;ratioP1;P1;durP2;ratioP2;P2;SDS_P1;SDS_P2;PMS_P1;PMS_P2;Temp;Humidity;BMP_temperature;BMP_pressure;BME280_temperature;BME280_humidity;BME280_pressure;Samples;Min_cycle;Max_cycle;Signal;HPM_P1;HPM_P2
2022/06/19 00:00:17;;;;;;;;;;;;;;;17.08;65.77;98711.38;4941034;28;19933;-80
2022/06/19 00:02:44;;;;;;;;;;;;;;;17.09;65.41;98718.47;4925102;28;20352;-80
2022/06/19 00:05:10;;;;;;;;;;;;;;;17.12;65.48;98726.22;4977733;28;19949;-80
2022/06/19 00:07:36;;;;;;;;;;;;;;;17.10;65.35;98725.53;4976799;28;20045;-79
2022/06/19 00:10:02;;;;;;;;;;;;;;;17.13;65.57;98725.19;4977891;28;20022;-79
2022/06/19 00:12:28;;;;;;;;;;;;;;;17.04;65.64;98730.81;4928726;28;19926;-80
2022/06/19 00:14:54;;;;;;;;;;;;;;;17.06;65.54;98729.63;4944572;28;19926;-80
2022/06/19 00:17:20;;;;;;;;;;;;;;;17.14;65.48;98736.81;4960714;28;19973;-82
2022/06/19 00:19:45;;;;;;;;;;;;;;;17.15;65.49;98744.75;4960509;28;19933;-80
2022/06/19 00:22:11;;;;;;;;;;;;;;;16.99;65.93;98755.66;4960740;28;20028;-80
2022/06/19 00:24:37;;;;;;;;;;;;;;;16.93;65.92;98745.56;4960202;28;20278;-80
2022/06/19 00:27:03;;;;;;;;;;;;;;;17.00;65.40;98746.56;4977754;28;19926;-80
2022/06/19 00:29:29;;;;;;;;;;;;;;;17.02;65.43;98749.91;4928590;28;19926;-81
2022/06/19 00:31:55;;;;;;;;;;;;;;;16.93;65.37;98745.56;4944450;28;19926;-80
2022/06/19 00:34:21;;;;;;;;;;;;;;;16.99;64.86;98745.69;4960393;28;19926;-81
2022/06/19 00:36:49;;;;;;;;;;;;;;;17.03;64.67;98746.16;4944664;28;19933;-81
2022/06/19 00:39:16;;;;;;;;;;;;;;;17.04;64.41;98750.56;4928369;28;19934;-81
2022/06/19 00:41:42;;;;;;;;;;;;;;;17.09;64.14;98756.25;4960016;28;19926;-81
2022/06/19 00:44:08;;;;;;;;;;;;;;;16.90;64.74;98754.03;4977374;28;19933;-81
2022/06/19 00:46:46;;;;;;;;;;;;;;;16.92;64.27;98750.09;4944267;28;20032;-81
2022/06/19 00:49:13;;;;;;;;;;;;;;;17.01;64.52;98753.63;4976065;28;20273;-81
2022/06/19 00:51:39;;;;;;;;;;;;;;;17.11;64.04;98748.84;4977486;28;20432;-80
2022/06/19 00:54:06;;;;;;;;;;;;;;;17.21;63.71;98749.41;4975591;28;19926;-80
2022/06/19 00:56:32;;;;;;;;;;;;;;;17.21;63.71;98754.00;4928173;28;19926;-86
2022/06/19 00:58:58;;;;;;;;;;;;;;;17.28;63.58;98759.53;4959883;28;19993;-80
2022/06/19 01:01:25;;;;;;;;;;;;;;;17.33;63.28;98757.09;4977371;28;20424;-80
2022/06/19 01:03:55;;;;;;;;;;;;;;;17.35;63.18;98755.91;4959800;28;19926;-80
2022/06/19 01:06:22;;;;;;;;;;;;;;;17.43;63.22;98746.91;4943746;28;19994;-82
2022/06/19 01:08:48;;;;;;;;;;;;;;;17.47;62.76;98745.53;4927835;28;19926;-81
2022/06/19 01:11:14;;;;;;;;;;;;;;;17.62;62.30;98751.81;4943765;28;20020;-81
2022/06/19 01:13:40;;;;;;;;;;;;;;;17.68;62.05;98750.25;4975454;28;19926;-82
2022/06/19 01:16:07;;;;;;;;;;;;;;;17.70;62.00;98753.59;4975805;28;19933;-80
2022/06/19 01:18:33;;;;;;;;;;;;;;;17.79;61.81;98762.50;4944071;28;19952;-80
2022/06/19 01:21:02;;;;;;;;;;;;;;;17.92;61.75;98762.72;4944016;28;19926;-80
2022/06/19 01:23:33;;;;;;;;;;;;;;;17.85;61.40;98768.00;4927517;28;20091;-81
2022/06/19 01:25:59;;;;;;;;;;;;;;;17.84;61.18;98765.50;4976612;28;20413;-80
2022/06/19 01:28:46;;;;;;;;;;;;;;;17.98;61.24;98764.69;4959227;28;19925;-79
2022/06/19 01:31:32;;;;;;;;;;;;;;;18.14;60.96;98772.63;4975490;28;20408;-79
2022/06/19 01:34:26;;;;;;;;;;;;;;;18.31;60.78;98767.03;4942683;28;20344;-79
2022/06/19 01:36:51;;;;;;;;;;;;;;;18.35;60.21;98773.75;4976211;28;19933;-80
2022/06/19 01:39:16;;;;;;;;;;;;;;;18.18;60.36;98786.63;4943165;28;20349;-80
2022/06/19 01:41:42;;;;;;;;;;;;;;;18.12;60.38;98773.84;4975033;28;19985;-79
2022/06/19 01:44:07;;;;;;;;;;;;;;;18.03;60.77;98781.19;4976092;28;19933;-79
2022/06/19 01:46:33;;;;;;;;;;;;;;;18.16;61.16;98785.97;4959188;28;19953;-80
2022/06/19 01:48:59;;;;;;;;;;;;;;;18.27;60.50;98776.56;4942787;28;19997;-80
2022/06/19 01:51:25;;;;;;;;;;;;;;;18.19;60.38;98775.63;4943247;28;19926;-80
2022/06/19 01:53:56;;;;;;;;;;;;;;;18.06;60.65;98783.53;4942762;28;20029;-80
2022/06/19 01:56:22;;;;;;;;;;;;;;;17.98;61.30;98783.63;4959106;28;19981;-79
2022/06/19 01:58:50;;;;;;;;;;;;;;;18.15;61.02;98784.28;4942454;28;19930;-80
2022/06/19 02:01:15;;;;;;;;;;;;;;;18.24;61.13;98771.50;4926751;28;19930;-80
2022/06/19 02:03:44;;;;;;;;;;;;;;;18.37;60.70;98774.41;4975728;28;20072;-80
2022/06/19 02:06:12;;;;;;;;;;;;;;;18.41;60.95;98779.25;4958613;28;19926;-80
2022/06/19 02:08:39;;;;;;;;;;;;;;;18.34;60.83;98766.66;4942416;28;19933;-80
2022/06/19 02:11:05;;;;;;;;;;;;;;;18.37;60.84;98777.13;4975647;28;19932;-80
2022/06/19 02:13:34;;;;;;;;;;;;;;;18.45;60.61;98775.16;4926660;28;19925;-80
2022/06/19 02:16:03;;;;;;;;;;;;;;;18.52;60.82;98764.44;4942574;28;20442;-79
2022/06/19 02:18:31;;;;;;;;;;;;;;;18.58;60.73;98774.53;4926767;28;19933;-80
2022/06/19 02:20:57;;;;;;;;;;;;;;;18.60;60.35;98772.44;4974347;28;19926;-79
2022/06/19 02:23:29;;;;;;;;;;;;;;;18.49;60.43;98767.50;4942084;28;20308;-80
2022/06/19 02:25:55;;;;;;;;;;;;;;;18.53;60.53;98779.63;4926125;28;19969;-80
2022/06/19 02:28:21;;;;;;;;;;;;;;;18.63;60.95;98774.78;4958216;28;20021;-77
2022/06/19 02:30:48;;;;;;;;;;;;;;;18.78;60.92;98774.78;4975362;28;20397;-79
2022/06/19 02:33:15;;;;;;;;;;;;;;;18.77;60.33;98764.13;4922609;29;20449;-79
2022/06/19 02:35:40;;;;;;;;;;;;;;;18.77;60.42;98761.44;4954088;29;19977;-82
2022/06/19 02:38:07;;;;;;;;;;;;;;;18.91;60.20;98772.22;4922900;29;19926;-79
2022/06/19 02:40:39;;;;;;;;;;;;;;;18.98;60.15;98764.19;4955727;29;20033;-77
2022/06/19 02:43:12;;;;;;;;;;;;;;;19.19;60.07;98767.97;4938623;29;19926;-79
2022/06/19 02:45:39;;;;;;;;;;;;;;;19.34;59.95;98768.75;4938878;29;19933;-79
2022/06/19 02:48:05;;;;;;;;;;;;;;;19.55;59.53;98759.78;4954202;28;19930;-78
2022/06/19 02:50:32;;;;;;;;;;;;;;;19.69;58.77;98763.50;4907015;29;20314;-77
2022/06/19 02:52:59;;;;;;;;;;;;;;;19.82;58.50;98750.03;4955663;29;19941;-78
2022/06/19 02:55:24;;;;;;;;;;;;;;;19.99;58.55;98751.41;4955603;29;19927;-77
2022/06/19 02:57:50;;;;;;;;;;;;;;;20.11;58.11;98760.69;4954109;29;19934;-77
2022/06/19 03:00:18;;;;;;;;;;;;;;;20.10;57.31;98758.19;4938934;29;19930;-80
2022/06/19 03:02:44;;;;;;;;;;;;;;;20.19;57.23;98756.97;4922400;29;19926;-79
2022/06/19 03:05:14;;;;;;;;;;;;;;;20.22;57.21;98758.47;4955487;29;19949;-78
2022/06/19 03:07:40;;;;;;;;;;;;;;;20.32;57.64;98758.94;4955859;29;19926;-77
2022/06/19 03:10:06;;;;;;;;;;;;;;;20.43;57.25;98752.97;4938260;29;20421;-78
2022/06/19 03:12:32;;;;;;;;;;;;;;;20.51;56.92;98758.25;4922963;29;19982;-78
2022/06/19 03:14:57;;;;;;;;;;;;;;;20.49;57.47;98763.03;4955752;29;19931;-78
2022/06/19 03:17:23;;;;;;;;;;;;;;;20.55;56.89;98761.41;4955439;28;19934;-78
2022/06/19 03:19:49;;;;;;;;;;;;;;;20.37;56.45;98761.88;4955625;29;19926;-78
2022/06/19 03:22:15;;;;;;;;;;;;;;;20.42;55.62;98766.72;4955214;29;19982;-83
2022/06/19 03:24:41;;;;;;;;;;;;;;;20.42;55.92;98762.13;4955443;28;19930;-81
2022/06/19 03:27:06;;;;;;;;;;;;;;;20.51;56.36;98771.00;4954326;28;19926;-80
2022/06/19 03:29:32;;;;;;;;;;;;;;;20.61;55.77;98763.28;4955318;28;20349;-81
2022/06/19 03:31:58;;;;;;;;;;;;;;;20.64;55.79;98776.47;4922670;29;19926;-81
2022/06/19 03:34:24;;;;;;;;;;;;;;;20.63;56.23;98771.25;4954184;29;19993;-79
2022/06/19 03:36:51;;;;;;;;;;;;;;;20.65;55.77;98761.00;4954976;29;19934;-80
2022/06/19 03:39:17;;;;;;;;;;;;;;;20.79;55.87;98762.75;4940219;29;19926;-81
2022/06/19 03:41:43;;;;;;;;;;;;;;;20.76;54.85;98771.31;4941673;29;19931;-82
2022/06/19 03:44:08;;;;;;;;;;;;;;;20.77;55.30;98764.84;4958823;28;19973;-82
2022/06/19 03:46:35;;;;;;;;;;;;;;;20.78;55.03;98769.25;4941972;29;20374;-81
2022/06/19 03:49:01;;;;;;;;;;;;;;;20.68;55.37;98774.19;4954738;29;19933;-80
2022/06/19 03:51:27;;;;;;;;;;;;;;;20.84;55.58;98776.59;4938915;29;20025;-81
2022/06/19 03:53:53;;;;;;;;;;;;;;;20.91;55.25;98772.03;4939795;29;19966;-82
2022/06/19 03:56:23;;;;;;;;;;;;;;;21.12;55.53;98772.91;4939594;29;19927;-81
2022/06/19 03:58:49;;;;;;;;;;;;;;;21.03;55.38;98783.13;4941429;29;20009;-86
2022/06/19 04:01:20;;;;;;;;;;;;;;;21.01;55.57;98779.78;4940924;29;19970;-80
2022/06/19 04:03:46;;;;;;;;;;;;;;;21.24;55.56;98776.72;4938288;29;19927;-80
2022/06/19 04:06:13;;;;;;;;;;;;;;;21.39;54.38;98773.84;4938261;29;19962;-81
2022/06/19 04:08:39;;;;;;;;;;;;;;;21.24;55.05;98782.13;4906963;29;19974;-83
2022/06/19 04:11:05;;;;;;;;;;;;;;;21.27;54.68;98788.00;4939444;29;19996;-83
2022/06/19 04:13:34;;;;;;;;;;;;;;;21.44;54.38;98783.06;4938317;29;19951;-79
2022/06/19 04:16:01;;;;;;;;;;;;;;;21.43;53.71;98788.69;4940007;29;19926;-86
2022/06/19 04:18:29;;;;;;;;;;;;;;;21.52;53.57;98791.03;4931548;29;19954;-88
2022/06/19 04:20:56;;;;;;;;;;;;;;;21.71;53.63;98789.38;4937468;29;19927;-88
2022/06/19 04:23:22;;;;;;;;;;;;;;;21.95;53.32;98785.19;4956357;29;20358;-87
2022/06/19 04:25:48;;;;;;;;;;;;;;;22.19;53.17;98788.34;4947164;29;20390;-82
2022/06/19 04:28:14;;;;;;;;;;;;;;;22.31;52.93;98789.41;4944776;29;19950;-89
2022/06/19 04:30:46;;;;;;;;;;;;;;;22.38;51.95;98783.91;4938316;29;19926;-89
2022/06/19 04:33:16;;;;;;;;;;;;;;;22.28;51.89;98787.09;4952245;29;19931;-84
2022/06/19 04:35:42;;;;;;;;;;;;;;;22.40;52.38;98782.66;4953979;29;19981;-82
2022/06/19 04:38:08;;;;;;;;;;;;;;;22.31;53.23;98778.50;4927184;29;19957;-85
2022/06/19 04:40:34;;;;;;;;;;;;;;;22.66;52.02;98775.47;4923062;29;20008;-88
2022/06/19 04:43:00;;;;;;;;;;;;;;;22.85;51.28;98780.00;4940944;29;19926;-88
2022/06/19 04:45:26;;;;;;;;;;;;;;;22.96;50.03;98779.38;4939320;29;19978;-87
2022/06/19 04:47:52;;;;;;;;;;;;;;;23.08;50.15;98767.78;4938929;29;19930;-90
2022/06/19 04:50:17;;;;;;;;;;;;;;;23.20;50.73;98776.94;4940678;29;19927;-91
2022/06/19 04:52:43;;;;;;;;;;;;;;;23.25;49.55;98774.41;4937923;29;19931;-91
2022/06/19 04:55:12;;;;;;;;;;;;;;;23.13;49.98;98778.88;4939220;29;19927;-88
2022/06/19 04:57:38;;;;;;;;;;;;;;;23.22;50.36;98785.75;4906496;29;19927;-81
2022/06/19 05:00:05;;;;;;;;;;;;;;;23.00;48.85;98783.34;4953365;29;19926;-88
2022/06/19 05:02:31;;;;;;;;;;;;;;;22.83;49.74;98787.59;4937838;29;19927;-88
2022/06/19 05:04:56;;;;;;;;;;;;;;;22.85;50.39;98780.00;4937699;29;19934;-89
2022/06/19 05:07:22;;;;;;;;;;;;;;;22.96;50.03;98779.38;4921371;29;19931;-90
2022/06/19 05:09:48;;;;;;;;;;;;;;;22.83;50.72;98779.41;4938026;29;19927;-88
2022/06/19 05:12:13;;;;;;;;;;;;;;;23.07;51.00;98777.03;4938697;29;19933;-89
2022/06/19 05:14:39;;;;;;;;;;;;;;;23.26;49.35;98778.81;4937017;29;20401;-85
2022/06/19 05:17:05;;;;;;;;;;;;;;;23.43;48.80;98776.38;4937153;29;20056;-87
2022/06/19 05:19:31;;;;;;;;;;;;;;;23.35;49.99;98774.75;4938978;29;19998;-91
2022/06/19 05:21:59;;;;;;;;;;;;;;;23.21;47.29;98781.38;4938321;29;19933;-86
2022/06/19 05:24:26;;;;;;;;;;;;;;;23.16;47.29;98786.63;4936931;29;19950;-88
2022/06/19 05:26:52;;;;;;;;;;;;;;;22.97;47.96;98781.03;4905474;29;20296;-85
2022/06/19 05:29:18;;;;;;;;;;;;;;;23.03;48.02;98782.91;4937239;29;19931;-86
2022/06/19 05:31:43;;;;;;;;;;;;;;;23.18;48.26;98777.19;4938068;29;20021;-88
2022/06/19 05:34:09;;;;;;;;;;;;;;;23.16;47.32;98782.00;4936912;29;19927;-85
2022/06/19 05:36:35;;;;;;;;;;;;;;;23.19;45.93;98783.47;4936838;29;19926;-91
2022/06/19 05:39:00;;;;;;;;;;;;;;;23.33;47.27;98776.88;4938669;29;19926;-89
2022/06/19 05:41:30;;;;;;;;;;;;;;;23.37;44.84;98771.84;4937276;29;19927;-88
2022/06/19 05:43:56;;;;;;;;;;;;;;;23.33;44.83;98771.44;4937687;29;19927;-88
2022/06/19 05:46:22;;;;;;;;;;;;;;;23.32;45.16;98763.44;4936704;29;19931;-88
2022/06/19 05:48:48;;;;;;;;;;;;;;;23.39;44.07;98773.25;4953252;29;19977;-89
2022/06/19 05:51:16;;;;;;;;;;;;;;;23.31;45.27;98778.97;4954019;29;19931;-88
2022/06/19 05:53:49;;;;;;;;;;;;;;;23.45;45.04;98769.66;4937649;29;19926;-90
2022/06/19 05:56:15;;;;;;;;;;;;;;;23.43;43.25;98779.97;4923632;29;19978;-91
2022/06/19 05:58:41;;;;;;;;;;;;;;;23.38;42.92;98785.22;4939804;29;19927;-90
2022/06/19 06:01:07;;;;;;;;;;;;;;;23.35;43.08;98784.84;4921967;29;19962;-90
2022/06/19 06:03:33;;;;;;;;;;;;;;;23.44;42.25;98770.72;4909250;29;19931;-91
2022/06/19 06:06:03;;;;;;;;;;;;;;;23.43;43.28;98773.66;4929870;29;19982;-90
2022/06/19 06:08:30;;;;;;;;;;;;;;;23.59;42.54;98775.06;4941397;29;19952;-88
2022/06/19 06:10:55;;;;;;;;;;;;;;;23.68;42.39;98773.75;4923981;29;19927;-85
2022/06/19 06:13:21;;;;;;;;;;;;;;;23.73;43.33;98766.59;4939947;29;19927;-90
2022/06/19 06:15:47;;;;;;;;;;;;;;;23.95;42.29;98763.44;4941134;29;19927;-90
2022/06/19 06:18:13;;;;;;;;;;;;;;;24.20;42.03;98766.16;4940019;29;19931;-87
2022/06/19 06:20:38;;;;;;;;;;;;;;;24.39;41.41;98776.09;4940936;29;19926;-89
2022/06/19 06:23:04;;;;;;;;;;;;;;;24.40;40.96;98776.91;4940617;29;19926;-86
2022/06/19 06:25:30;;;;;;;;;;;;;;;24.50;40.23;98768.22;4939525;29;19926;-82
2022/06/19 06:27:55;;;;;;;;;;;;;;;24.66;39.12;98775.78;4944870;29;20033;-87
2022/06/19 06:30:21;;;;;;;;;;;;;;;24.62;39.83;98769.13;4931887;29;19973;-90
2022/06/19 06:32:47;;;;;;;;;;;;;;;24.77;40.81;98771.47;4928590;29;19938;-83
2022/06/19 06:35:13;;;;;;;;;;;;;;;24.56;38.96;98781.81;4904198;29;19937;-81
2022/06/19 06:37:38;;;;;;;;;;;;;;;24.78;40.07;98773.97;4951154;28;20347;-80
2022/06/19 06:40:05;;;;;;;;;;;;;;;24.95;39.56;98780.50;4902985;29;19927;-80
2022/06/19 06:42:31;;;;;;;;;;;;;;;24.77;40.14;98775.03;4919700;29;20306;-79
2022/06/19 06:44:57;;;;;;;;;;;;;;;24.85;39.90;98779.34;4919077;29;19927;-80
2022/06/19 06:47:22;;;;;;;;;;;;;;;24.91;40.04;98773.81;4906338;29;19935;-83
2022/06/19 06:49:48;;;;;;;;;;;;;;;25.22;40.02;98774.72;4970855;28;19926;-82
2022/06/19 06:52:14;;;;;;;;;;;;;;;25.50;39.63;98775.97;4957424;28;19922;-83
2022/06/19 06:54:39;;;;;;;;;;;;;;;25.21;40.36;98774.94;4941745;28;20452;-85
2022/06/19 06:57:06;;;;;;;;;;;;;;;25.23;39.33;98770.91;4958339;28;19924;-83
2022/06/19 06:59:32;;;;;;;;;;;;;;;25.00;38.19;98776.22;4941633;28;19932;-83
2022/06/19 07:01:58;;;;;;;;;;;;;;;24.81;38.81;98784.44;4973553;28;20024;-86
2022/06/19 07:04:23;;;;;;;;;;;;;;;24.78;38.78;98782.16;4941252;28;20447;-81
2022/06/19 07:06:49;;;;;;;;;;;;;;;24.92;39.78;98780.94;4973258;28;19926;-80
2022/06/19 07:09:15;;;;;;;;;;;;;;;25.19;38.77;98769.69;4956956;28;19926;-83
2022/06/19 07:11:42;;;;;;;;;;;;;;;25.44;38.88;98778.59;4974328;28;19933;-81
2022/06/19 07:14:08;;;;;;;;;;;;;;;25.49;38.00;98774.31;4957076;28;19926;-81
2022/06/19 07:16:33;;;;;;;;;;;;;;;25.51;38.06;98767.56;4963732;28;19932;-84
2022/06/19 07:18:59;;;;;;;;;;;;;;;25.42;38.06;98769.78;4959439;28;20024;-83
2022/06/19 07:21:25;;;;;;;;;;;;;;;25.40;37.55;98768.34;4957070;28;19958;-82
2022/06/19 07:23:51;;;;;;;;;;;;;;;25.39;38.33;98774.91;4956723;28;19941;-79
2022/06/19 07:26:19;;;;;;;;;;;;;;;25.46;37.75;98769.31;4925406;28;19930;-81
2022/06/19 07:28:46;;;;;;;;;;;;;;;25.63;38.12;98762.13;4958311;28;19933;-84
2022/06/19 07:31:13;;;;;;;;;;;;;;;25.64;37.10;98758.31;4943397;28;20341;-92
2022/06/19 07:33:39;;;;;;;;;;;;;;;25.82;37.80;98769.19;4976433;28;19926;-84
2022/06/19 07:36:11;;;;;;;;;;;;;;;26.00;37.41;98761.97;4958275;28;19926;-81
2022/06/19 07:38:37;;;;;;;;;;;;;;;26.15;37.82;98752.22;4942589;28;19933;-85
2022/06/19 07:41:03;;;;;;;;;;;;;;;26.48;37.31;98744.47;4961313;28;19930;-88
2022/06/19 07:43:28;;;;;;;;;;;;;;;26.54;36.88;98732.56;4952586;28;19934;-89
2022/06/19 07:45:54;;;;;;;;;;;;;;;26.88;36.89;98739.03;4944755;28;20017;-84
2022/06/19 07:51:06;;;;;;;;;;;;;;;26.88;35.59;98739.84;4947085;28;20056;-84
2022/06/19 07:53:31;;;;;;;;;;;;;;;26.26;36.53;98736.03;4984917;28;19926;-88
2022/06/19 07:55:57;;;;;;;;;;;;;;;25.92;38.34;98733.88;4984897;28;19997;-88
2022/06/19 07:58:23;;;;;;;;;;;;;;;26.10;38.10;98737.53;4971125;28;19930;-89
2022/06/19 08:00:48;;;;;;;;;;;;;;;26.73;37.20;98735.97;4955120;28;19997;-90
2022/06/19 08:03:14;;;;;;;;;;;;;;;27.06;37.17;98718.81;4936785;28;19926;-90
2022/06/19 08:05:41;;;;;;;;;;;;;;;27.45;36.20;98727.22;4978754;28;19959;-87
2022/06/19 08:08:13;;;;;;;;;;;;;;;27.63;34.30;98729.75;4967690;28;19941;-89
2022/06/19 08:10:40;;;;;;;;;;;;;;;26.87;35.64;98731.88;4928905;29;19930;-91
2022/06/19 08:13:06;;;;;;;;;;;;;;;26.65;36.03;98728.94;4918118;29;19927;-90
2022/06/19 08:15:33;;;;;;;;;;;;;;;26.75;35.60;98733.81;4950326;29;19933;-90
2022/06/19 08:17:59;;;;;;;;;;;;;;;27.22;35.69;98720.78;4918171;29;19931;-91
2022/06/19 08:20:25;;;;;;;;;;;;;;;27.50;35.15;98724.59;4932363;29;19961;-89
2022/06/19 08:22:51;;;;;;;;;;;;;;;27.51;33.19;98727.09;4930256;29;19926;-88
2022/06/19 08:25:17;;;;;;;;;;;;;;;27.76;33.55;98714.91;4948611;29;19926;-87
2022/06/19 08:27:47;;;;;;;;;;;;;;;28.22;33.55;98724.69;4932418;29;19938;-87
2022/06/19 08:30:14;;;;;;;;;;;;;;;28.51;33.47;98702.56;4948279;29;20130;-87
2022/06/19 08:32:40;;;;;;;;;;;;;;;28.26;32.12;98717.59;4948200;29;19933;-87
2022/06/19 08:35:06;;;;;;;;;;;;;;;28.06;30.84;98722.81;4967955;28;19927;-89
2022/06/19 08:37:33;;;;;;;;;;;;;;;27.54;31.27;98720.28;4950774;29;19927;-84
2022/06/19 08:39:59;;;;;;;;;;;;;;;27.63;32.05;98713.28;4928645;28;20442;-87
2022/06/19 08:42:28;;;;;;;;;;;;;;;27.94;32.22;98703.63;4954401;28;19927;-87
2022/06/19 08:45:04;;;;;;;;;;;;;;;28.03;32.20;98724.13;4911803;29;19926;-84
2022/06/19 08:47:41;;;;;;;;;;;;;;;27.16;35.99;98734.69;4947302;28;19937;-94
2022/06/19 08:50:27;;;;;;;;;;;;;;;25.71;39.67;98719.88;4951899;29;20382;-82
2022/06/19 08:52:56;;;;;;;;;;;;;;;25.06;41.76;98731.56;4921627;28;19931;-85
2022/06/19 08:55:37;;;;;;;;;;;;;;;24.56;42.78;98737.22;4926904;28;20017;-84
2022/06/19 08:58:06;;;;;;;;;;;;;;;24.36;42.66;98727.31;4934960;28;19930;-86
2022/06/19 09:00:36;;;;;;;;;;;;;;;24.07;43.54;98730.78;4935363;28;19933;-84
2022/06/19 09:03:17;;;;;;;;;;;;;;;23.79;44.38;98753.09;4974602;28;19981;-79
2022/06/19 09:05:45;;;;;;;;;;;;;;;22.21;43.16;98772.66;4959583;28;19930;-81
2022/06/19 09:08:23;;;;;;;;;;;;;;;21.27;45.41;98739.06;4960838;28;19926;-82
2022/06/19 09:10:51;;;;;;;;;;;;;;;21.20;45.11;98737.38;4944135;28;19952;-79
2022/06/19 09:13:32;;;;;;;;;;;;;;;21.44;46.25;98733.25;4977084;28;19926;-84
2022/06/19 09:16:03;;;;;;;;;;;;;;;22.16;42.89;98737.91;4944119;28;20394;-79
2022/06/19 09:18:28;;;;;;;;;;;;;;;22.65;41.67;98743.84;4942967;28;19926;-80
2022/06/19 09:21:14;;;;;;;;;;;;;;;23.03;41.88;98733.00;4943145;28;19933;-83
2022/06/19 09:23:46;;;;;;;;;;;;;;;23.42;42.61;98725.63;4926626;28;19988;-80
2022/06/19 09:26:18;;;;;;;;;;;;;;;23.63;42.52;98721.72;4959008;28;19926;-78
2022/06/19 09:28:57;;;;;;;;;;;;;;;23.97;43.39;98723.94;4942363;28;19956;-78
2022/06/19 09:31:29;;;;;;;;;;;;;;;24.52;43.46;98716.88;4942720;28;19984;-76
2022/06/19 09:34:01;;;;;;;;;;;;;;;25.58;42.13;98705.34;4942802;28;19949;-77
2022/06/19 09:36:36;;;;;;;;;;;;;;;26.40;39.73;98710.88;4957680;28;19930;-79
2022/06/19 09:39:14;;;;;;;;;;;;;;;26.45;39.22;98717.53;4942554;28;20024;-80
2022/06/19 09:41:43;;;;;;;;;;;;;;;26.69;39.24;98718.34;4926277;28;20461;-83
2022/06/19 09:44:18;;;;;;;;;;;;;;;26.45;38.10;98723.00;4958903;28;19926;-79
2022/06/19 09:46:48;;;;;;;;;;;;;;;26.18;38.80;98726.25;4943071;28;19937;-81
2022/06/19 09:49:19;;;;;;;;;;;;;;;26.51;39.02;98713.84;4975136;28;19925;-79
2022/06/19 09:52:18;;;;;;;;;;;;;;;26.44;38.35;98700.25;4942069;28;19926;-79
2022/06/19 09:54:57;;;;;;;;;;;;;;;26.67;36.50;98704.88;4942415;28;19930;-79
2022/06/19 09:57:32;;;;;;;;;;;;;;;27.27;35.37;98698.94;4945906;29;19930;-80
2022/06/19 10:00:09;;;;;;;;;;;;;;;27.45;33.61;98686.88;4933219;28;19926;-79
2022/06/19 10:02:42;;;;;;;;;;;;;;;27.66;34.33;98684.50;4921950;28;20406;-80
2022/06/19 10:05:18;;;;;;;;;;;;;;;28.02;32.71;98683.16;4933762;28;19973;-81
2022/06/19 10:07:49;;;;;;;;;;;;;;;28.59;31.71;98677.38;4944906;28;20309;-78
2022/06/19 10:10:34;;;;;;;;;;;;;;;28.82;30.59;98676.28;4935207;29;19934;-80
2022/06/19 10:13:01;;;;;;;;;;;;;;;29.01;29.66;98682.28;4966233;28;19926;-78
2022/06/19 10:15:31;;;;;;;;;;;;;;;29.10;30.16;98672.47;4932564;29;19930;-80
2022/06/19 10:18:03;;;;;;;;;;;;;;;29.74;29.60;98667.00;4937904;29;19926;-79
2022/06/19 10:20:37;;;;;;;;;;;;;;;30.13;29.22;98677.75;4964009;28;20369;-79
2022/06/19 10:23:16;;;;;;;;;;;;;;;30.52;29.02;98671.09;4961785;28;19930;-78
2022/06/19 10:25:45;;;;;;;;;;;;;;;30.29;28.92;98678.72;4964660;28;19927;-78
2022/06/19 10:28:30;;;;;;;;;;;;;;;30.12;29.27;98678.84;4963072;28;20309;-79
2022/06/19 10:31:14;;;;;;;;;;;;;;;30.66;28.75;98672.25;4964963;28;19926;-80
2022/06/19 10:34:03;;;;;;;;;;;;;;;31.51;29.09;98672.75;4965278;28;19926;-78
2022/06/19 10:36:35;;;;;;;;;;;;;;;31.76;27.95;98663.66;4922730;28;20021;-77
2022/06/19 10:39:19;;;;;;;;;;;;;;;32.25;28.73;98659.44;4936283;28;19933;-79
2022/06/19 10:42:05;;;;;;;;;;;;;;;32.38;28.40;98664.34;4947502;29;20025;-80
2022/06/19 10:44:30;;;;;;;;;;;;;;;32.39;28.59;98675.16;4950107;28;19926;-79
2022/06/19 10:47:16;;;;;;;;;;;;;;;32.13;27.01;98668.88;4918636;28;20017;-78
2022/06/19 10:50:01;;;;;;;;;;;;;;;31.38;28.20;98681.59;4940425;28;20020;-78
2022/06/19 10:52:39;;;;;;;;;;;;;;;30.04;30.16;98681.28;4920742;29;19942;-78
2022/06/19 10:55:07;;;;;;;;;;;;;;;29.26;31.81;98682.56;4915581;28;20599;-78
2022/06/19 10:57:45;;;;;;;;;;;;;;;28.77;33.09;98688.06;4964808;28;19930;-78
2022/06/19 11:00:11;;;;;;;;;;;;;;;27.81;35.50;98715.81;4934281;28;19968;-80
2022/06/19 11:05:54;;;;;;;;;;;;;;;24.84;39.51;98733.97;4941049;29;19930;-80
2022/06/19 11:08:22;;;;;;;;;;;;;;;24.18;41.67;98719.13;4891227;28;19934;-79
2022/06/19 11:10:49;;;;;;;;;;;;;;;23.56;42.52;98726.38;4915545;29;19933;-81
2022/06/19 11:13:14;;;;;;;;;;;;;;;22.86;44.58;98764.50;4918710;29;20032;-79
2022/06/19 11:15:43;;;;;;;;;;;;;;;22.23;45.07;98760.50;4943464;29;20490;-79
2022/06/19 11:18:20;;;;;;;;;;;;;;;21.66;46.12;98733.91;4931102;28;19945;-80
2022/06/19 11:21:06;;;;;;;;;;;;;;;21.49;46.23;98742.50;4946467;29;20443;-81
2022/06/19 11:23:47;;;;;;;;;;;;;;;21.13;47.64;98720.22;4959969;28;19956;-79
2022/06/19 11:26:22;;;;;;;;;;;;;;;20.89;49.05;98730.63;4944526;29;20374;-79
2022/06/19 11:28:50;;;;;;;;;;;;;;;20.88;49.24;98722.69;4938787;28;19965;-81
2022/06/19 11:31:25;;;;;;;;;;;;;;;20.87;49.73;98716.38;4921890;28;19930;-81
2022/06/19 11:33:53;;;;;;;;;;;;;;;20.90;49.00;98717.88;4906267;29;20021;-79
2022/06/19 11:36:24;;;;;;;;;;;;;;;20.68;50.13;98717.16;4951632;29;19926;-80
2022/06/19 11:38:52;;;;;;;;;;;;;;;20.68;50.14;98709.00;4959804;28;19933;-80
2022/06/19 11:41:20;;;;;;;;;;;;;;;20.61;50.06;98709.84;4963717;28;19926;-80
2022/06/19 11:43:58;;;;;;;;;;;;;;;20.49;50.30;98708.72;4967000;28;20002;-81
2022/06/19 11:46:27;;;;;;;;;;;;;;;20.35;50.62;98702.38;4964539;28;19931;-77
2022/06/19 11:48:53;;;;;;;;;;;;;;;20.05;51.81;98699.09;4944779;28;19992;-79
2022/06/19 11:51:21;;;;;;;;;;;;;;;20.02;53.50;98698.66;4939543;28;20393;-79
2022/06/19 11:53:53;;;;;;;;;;;;;;;19.90;53.96;98692.94;4933020;28;19926;-80
2022/06/19 11:56:21;;;;;;;;;;;;;;;19.83;52.92;98697.47;4928327;29;19926;-81
2022/06/19 11:58:53;;;;;;;;;;;;;;;19.78;53.03;98694.50;4930875;28;20048;-80
2022/06/19 12:01:20;;;;;;;;;;;;;;;19.90;53.01;98692.94;4948105;29;19926;-81
2022/06/19 12:03:55;;;;;;;;;;;;;;;20.36;51.25;98690.47;4939065;29;20413;-82
2022/06/19 12:06:39;;;;;;;;;;;;;;;20.65;50.45;98684.97;4954492;28;19926;-80
2022/06/19 12:09:06;;;;;;;;;;;;;;;21.64;50.18;98673.47;4935594;28;19926;-80
2022/06/19 12:11:38;;;;;;;;;;;;;;;22.97;47.49;98666.56;4965944;28;20021;-78
2022/06/19 12:14:07;;;;;;;;;;;;;;;25.01;44.56;98655.72;4942452;28;20349;-78
2022/06/19 12:16:33;;;;;;;;;;;;;;;26.55;39.13;98655.53;4966834;28;19949;-79
2022/06/19 12:19:14;;;;;;;;;;;;;;;27.34;37.15;98649.38;4950646;28;20025;-80
2022/06/19 12:21:47;;;;;;;;;;;;;;;27.59;37.04;98652.53;4949130;28;19966;-79
2022/06/19 12:24:15;;;;;;;;;;;;;;;27.26;37.34;98658.84;4915849;29;20309;-79
2022/06/19 12:26:47;;;;;;;;;;;;;;;26.19;38.74;98673.13;4917484;28;19927;-79
2022/06/19 12:29:12;;;;;;;;;;;;;;;25.94;41.63;98669.81;4918557;28;19926;-78
2022/06/19 12:31:39;;;;;;;;;;;;;;;27.11;40.06;98664.06;4966127;28;20010;-80
2022/06/19 12:34:08;;;;;;;;;;;;;;;28.57;37.27;98657.56;4966750;28;20398;-79
2022/06/19 12:36:35;;;;;;;;;;;;;;;30.36;33.78;98650.91;4950520;29;19926;-78
2022/06/19 12:39:01;;;;;;;;;;;;;;;30.60;31.26;98646.56;4960541;28;19930;-78
2022/06/19 12:41:27;;;;;;;;;;;;;;;31.52;31.57;98645.97;4965306;28;19964;-78
2022/06/19 12:43:59;;;;;;;;;;;;;;;31.92;27.89;98634.06;4957943;28;20405;-79
2022/06/19 12:46:28;;;;;;;;;;;;;;;32.30;28.87;98629.00;4924768;29;19930;-79
2022/06/19 12:49:12;;;;;;;;;;;;;;;32.38;27.56;98623.72;4908270;29;20066;-92
2022/06/19 12:51:43;;;;;;;;;;;;;;;33.22;27.96;98628.56;4916098;29;19934;-86
2022/06/19 12:54:12;;;;;;;;;;;;;;;34.20;26.93;98621.03;4929816;29;19926;-89
2022/06/19 12:56:56;;;;;;;;;;;;;;;33.96;25.92;98627.34;4915402;29;19926;-86
2022/06/19 12:59:41;;;;;;;;;;;;;;;34.80;26.05;98619.44;4943103;29;19927;-86
2022/06/19 13:02:26;;;;;;;;;;;;;;;34.56;25.58;98625.03;4940049;29;19953;-84